Time;durP1;ratioP1;P1;durP2;ratioP2;P2;SDS_P1;SDS_P2;PMS_P1;PMS_P2;Temp;Humidity;BMP_temperature;BMP_pressure;BME280_temperature;BME280_humidity;BME280_pressure;Samples;Min_cycle;Max_cycle;Signal;HPM_P1;HPM_P2
2021/09/26 00:02:06;;;;;;;29.27;26.17;;;17.20;99.90;;;;;;4972531;28;20486;-49
2021/09/26 00:04:33;;;;;;;30.20;27.03;;;17.20;99.90;;;;;;4972367;28;20457;-48
2021/09/26 00:07:00;;;;;;;28.80;25.87;;;16.70;99.90;;;;;;4971755;28;20962;-50
2021/09/26 00:09:28;;;;;;;29.47;26.47;;;17.20;99.90;;;;;;4972302;28;21061;-50
2021/09/26 00:11:56;;;;;;;31.10;25.27;;;17.10;99.90;;;;;;4972693;28;20467;-49
2021/09/26 00:14:23;;;;;;;29.80;26.67;;;16.80;99.90;;;;;;4972199;28;20506;-49
2021/09/26 00:16:50;;;;;;;34.50;26.53;;;17.10;99.90;;;;;;4972524;28;20524;-50
2021/09/26 00:19:17;;;;;;;27.50;24.70;;;17.10;99.90;;;;;;4975531;28;20866;-48
2021/09/26 00:21:47;;;;;;;28.87;25.97;;;17.10;99.90;;;;;;4976487;28;20445;-50
2021/09/26 00:24:14;;;;;;;27.27;24.47;;;17.00;99.90;;;;;;4976151;28;20443;-49
2021/09/26 00:26:43;;;;;;;28.17;25.20;;;17.10;99.90;;;;;;4976259;28;20477;-50
2021/09/26 00:29:11;;;;;;;28.40;25.50;;;17.00;99.90;;;;;;4974432;28;20572;-49
2021/09/26 00:31:37;;;;;;;27.40;24.73;;;17.10;99.90;;;;;;4975779;28;20469;-50
2021/09/26 00:34:04;;;;;;;29.97;27.17;;;17.40;99.90;;;;;;4975802;28;20531;-51
2021/09/26 00:36:31;;;;;;;28.83;25.73;;;17.10;99.90;;;;;;4975968;28;20527;-49
2021/09/26 00:38:58;;;;;;;27.27;24.37;;;17.20;99.90;;;;;;4974464;28;20494;-49
2021/09/26 00:41:24;;;;;;;28.63;25.67;;;17.20;99.90;;;;;;4975947;28;20437;-50
2021/09/26 00:43:51;;;;;;;28.93;25.60;;;17.20;99.90;;;;;;4975726;28;20495;-49
2021/09/26 00:46:19;;;;;;;27.83;24.83;;;17.20;99.90;;;;;;4975685;28;20945;-50
2021/09/26 00:48:48;;;;;;;28.10;25.50;;;17.20;99.90;;;;;;4975432;28;20620;-50
2021/09/26 00:51:17;;;;;;;29.70;26.47;;;17.20;99.90;;;;;;4974530;28;20571;-50
2021/09/26 00:53:44;;;;;;;27.83;24.93;;;17.20;99.90;;;;;;4975728;28;20436;-49
2021/09/26 00:56:13;;;;;;;28.63;25.87;;;17.20;99.90;;;;;;4974648;28;21045;-49
2021/09/26 00:58:41;;;;;;;30.60;27.40;;;17.20;99.90;;;;;;4975270;28;20842;-50
2021/09/26 01:01:08;;;;;;;26.73;24.13;;;17.30;99.90;;;;;;4975316;28;20432;-49
2021/09/26 01:03:36;;;;;;;30.57;27.40;;;17.30;99.90;;;;;;4974191;28;20537;-49
2021/09/26 01:06:14;;;;;;;27.40;24.70;;;17.30;99.90;;;;;;4975322;28;20554;-50
2021/09/26 01:08:52;;;;;;;28.73;25.90;;;17.40;99.90;;;;;;4975167;28;20538;-49
2021/09/26 01:11:26;;;;;;;29.03;25.97;;;17.30;99.90;;;;;;4975174;28;20489;-49
2021/09/26 01:14:02;;;;;;;29.00;26.00;;;17.40;99.90;;;;;;4975439;28;20464;-50
2021/09/26 01:16:33;;;;;;;25.20;22.70;;;17.40;99.90;;;;;;4975251;28;20875;-49
2021/09/26 01:19:24;;;;;;;27.47;24.80;;;17.40;99.90;;;;;;4974629;28;20433;-50
2021/09/26 01:21:58;;;;;;;29.20;26.27;;;17.50;99.90;;;;;;4975198;28;20445;-49
2021/09/26 01:24:43;;;;;;;29.00;26.10;;;17.50;99.90;;;;;;4973858;28;20483;-49
2021/09/26 01:27:52;;;;;;;26.67;24.13;;;17.50;99.90;;;;;;4975395;28;20449;-49
2021/09/26 01:30:28;;;;;;;28.10;25.10;;;17.50;99.90;;;;;;4972738;28;20829;-50
2021/09/26 01:33:02;;;;;;;26.97;24.30;;;17.50;99.90;;;;;;4974708;28;20600;-50
2021/09/26 01:35:30;;;;;;;27.30;24.57;;;17.50;99.90;;;;;;4974901;28;20461;-49
2021/09/26 01:38:07;;;;;;;26.53;23.83;;;17.60;99.90;;;;;;4974486;28;20437;-50
2021/09/26 01:40:42;;;;;;;26.60;23.73;;;17.60;99.90;;;;;;4974736;28;20531;-50
2021/09/26 01:43:14;;;;;;;26.17;23.57;;;17.50;99.90;;;;;;4974773;28;20527;-50
2021/09/26 01:45:46;;;;;;;26.97;24.17;;;17.50;99.90;;;;;;4974636;28;20467;-49
2021/09/26 01:48:16;;;;;;;26.40;23.70;;;17.50;99.90;;;;;;4974141;28;20523;-50
2021/09/26 01:50:44;;;;;;;25.60;23.13;;;17.60;99.90;;;;;;4974733;28;20616;-49
2021/09/26 01:53:12;;;;;;;28.67;25.77;;;17.60;99.90;;;;;;4974631;28;20882;-50
2021/09/26 01:55:40;;;;;;;24.13;21.60;;;17.60;99.90;;;;;;4973171;28;20513;-50
2021/09/26 01:58:08;;;;;;;26.63;23.97;;;17.60;99.90;;;;;;4972896;28;20548;-50
2021/09/26 02:00:36;;;;;;;26.80;24.30;;;17.60;99.90;;;;;;4973040;28;20486;-49
2021/09/26 02:03:05;;;;;;;26.03;23.67;;;17.60;99.90;;;;;;4974280;28;20439;-50
2021/09/26 02:05:32;;;;;;;27.03;23.53;;;17.60;99.90;;;;;;4972982;28;20509;-49
2021/09/26 02:08:05;;;;;;;24.70;22.27;;;17.60;99.90;;;;;;4974009;28;20967;-49
2021/09/26 02:10:33;;;;;;;26.47;23.73;;;17.60;99.90;;;;;;4974416;28;20484;-50
2021/09/26 02:13:01;;;;;;;26.03;23.53;;;17.60;99.90;;;;;;4974123;28;20440;-49
2021/09/26 02:15:29;;;;;;;26.80;24.07;;;17.50;99.90;;;;;;4974063;28;20464;-49
2021/09/26 02:17:57;;;;;;;24.37;21.87;;;17.50;99.90;;;;;;4973712;28;21048;-48
2021/09/26 02:20:25;;;;;;;24.77;22.47;;;17.50;99.90;;;;;;4974107;28;20441;-49
2021/09/26 02:22:54;;;;;;;25.47;22.77;;;17.50;99.90;;;;;;4972541;28;20536;-50
2021/09/26 02:25:21;;;;;;;24.63;22.13;;;17.50;99.90;;;;;;4973987;28;20522;-50
2021/09/26 02:27:51;;;;;;;25.50;22.10;;;17.50;99.90;;;;;;4973658;28;20508;-49
2021/09/26 02:30:18;;;;;;;24.87;22.43;;;17.50;99.90;;;;;;4974154;28;20807;-49
2021/09/26 02:32:46;;;;;;;28.80;25.97;;;17.50;99.90;;;;;;4973961;28;20484;-49
2021/09/26 02:35:14;;;;;;;25.37;22.80;;;17.60;99.90;;;;;;4973890;28;20514;-50
2021/09/26 02:37:43;;;;;;;26.57;24.00;;;17.50;99.90;;;;;;4973729;28;20925;-50
2021/09/26 02:40:11;;;;;;;25.50;23.10;;;17.60;99.90;;;;;;4972549;28;20541;-49
2021/09/26 02:42:45;;;;;;;26.40;23.20;;;17.60;99.90;;;;;;4972499;28;20556;-50
2021/09/26 02:45:15;;;;;;;25.40;22.70;;;17.60;99.90;;;;;;4973540;28;20904;-50
2021/09/26 02:47:54;;;;;;;26.73;23.90;;;17.60;99.90;;;;;;4973361;28;20453;-49
2021/09/26 02:50:25;;;;;;;25.30;22.80;;;17.60;99.90;;;;;;4973636;28;20564;-49
2021/09/26 02:52:54;;;;;;;24.30;21.80;;;17.60;99.90;;;;;;4973538;28;20526;-49
2021/09/26 02:55:21;;;;;;;25.13;22.60;;;17.60;99.90;;;;;;4973372;28;20472;-49
2021/09/26 02:57:48;;;;;;;27.67;24.27;;;17.60;99.90;;;;;;4973082;28;20532;-50
2021/09/26 03:00:15;;;;;;;24.43;21.93;;;17.50;99.90;;;;;;4973536;28;20535;-49
2021/09/26 03:02:45;;;;;;;26.03;23.43;;;17.50;99.90;;;;;;4973147;28;20434;-51
2021/09/26 03:05:12;;;;;;;23.57;21.37;;;17.50;99.90;;;;;;4973331;28;20460;-50
2021/09/26 03:07:38;;;;;;;22.83;20.53;;;17.50;99.90;;;;;;4971994;28;20454;-50
2021/09/26 03:10:08;;;;;;;22.73;20.53;;;17.60;99.90;;;;;;4973249;28;20570;-49
2021/09/26 03:12:35;;;;;;;22.77;20.57;;;17.60;99.90;;;;;;4973454;28;20528;-50
2021/09/26 03:15:02;;;;;;;22.90;20.63;;;17.60;99.90;;;;;;4973231;28;20464;-49
2021/09/26 03:17:30;;;;;;;21.83;19.87;;;17.60;99.90;;;;;;4973268;28;20982;-50
2021/09/26 03:19:57;;;;;;;22.60;20.40;;;17.60;99.90;;;;;;4972862;28;20525;-50
2021/09/26 03:22:23;;;;;;;23.17;21.10;;;17.60;99.90;;;;;;4973136;28;20938;-49
2021/09/26 03:24:50;;;;;;;22.67;20.57;;;17.60;99.90;;;;;;4971722;28;20907;-50
2021/09/26 03:27:18;;;;;;;22.70;20.50;;;17.70;99.90;;;;;;4971789;28;20449;-50
2021/09/26 03:29:45;;;;;;;21.40;19.40;;;17.70;99.90;;;;;;4972663;28;20543;-49
2021/09/26 03:32:12;;;;;;;23.07;20.93;;;17.70;99.90;;;;;;4972932;28;20518;-50
2021/09/26 03:34:39;;;;;;;24.00;21.90;;;17.70;99.90;;;;;;4972805;28;20559;-49
2021/09/26 03:37:09;;;;;;;23.80;21.10;;;17.70;99.90;;;;;;4973136;28;20806;-50
2021/09/26 03:39:36;;;;;;;23.37;20.87;;;17.70;99.90;;;;;;4971413;28;20451;-49
2021/09/26 03:42:04;;;;;;;22.07;19.93;;;17.70;99.90;;;;;;4973168;28;20523;-50
2021/09/26 03:44:32;;;;;;;22.17;20.07;;;17.70;99.90;;;;;;4972830;28;20535;-49
2021/09/26 03:46:59;;;;;;;20.30;18.30;;;17.70;99.90;;;;;;4971580;28;20538;-50
2021/09/26 03:49:27;;;;;;;20.73;18.63;;;17.70;99.90;;;;;;4972615;28;20887;-49
2021/09/26 03:51:57;;;;;;;22.73;20.33;;;17.70;99.90;;;;;;4972817;28;20550;-49
2021/09/26 03:54:23;;;;;;;22.47;20.27;;;17.70;99.90;;;;;;4979342;28;20512;-49
2021/09/26 03:56:50;;;;;;;21.47;19.57;;;17.70;99.90;;;;;;4979252;28;20928;-49
2021/09/26 03:59:17;;;;;;;22.33;20.10;;;17.70;99.90;;;;;;4978867;28;20520;-50
2021/09/26 04:01:47;;;;;;;21.73;19.73;;;17.70;99.90;;;;;;4977829;28;20447;-50
2021/09/26 04:04:14;;;;;;;21.53;19.43;;;17.70;99.90;;;;;;4979567;28;20439;-50
2021/09/26 04:06:44;;;;;;;18.33;16.47;;;17.60;99.90;;;;;;4979070;28;20443;-50
2021/09/26 04:09:12;;;;;;;21.63;19.40;;;17.70;99.90;;;;;;4978754;28;20510;-49
2021/09/26 04:11:39;;;;;;;19.57;17.77;;;17.70;99.90;;;;;;4979096;28;20556;-49
2021/09/26 04:14:06;;;;;;;21.97;19.90;;;17.70;99.90;;;;;;4979051;28;20952;-49
2021/09/26 04:16:33;;;;;;;20.80;18.70;;;17.70;99.90;;;;;;4977588;28;20492;-49
2021/09/26 04:19:01;;;;;;;20.37;18.40;;;17.70;99.90;;;;;;4977189;28;20451;-50
2021/09/26 04:21:28;;;;;;;22.37;20.20;;;17.70;99.90;;;;;;4979441;28;20443;-50
2021/09/26 04:23:55;;;;;;;21.10;19.10;;;17.70;99.90;;;;;;4977728;28;20956;-50
2021/09/26 04:26:22;;;;;;;20.37;18.37;;;17.70;99.90;;;;;;4977497;28;20560;-50
2021/09/26 04:28:48;;;;;;;17.20;15.60;;;17.70;99.90;;;;;;4978585;28;20446;-50
2021/09/26 04:31:15;;;;;;;20.43;18.43;;;17.70;99.90;;;;;;4978770;28;20500;-49
2021/09/26 04:33:42;;;;;;;21.73;18.60;;;17.70;99.90;;;;;;4977583;28;20542;-50
2021/09/26 04:36:12;;;;;;;20.30;17.87;;;17.80;99.90;;;;;;4978871;28;20459;-50
2021/09/26 04:38:39;;;;;;;18.50;16.77;;;17.70;99.90;;;;;;4977092;28;20543;-50
2021/09/26 04:41:06;;;;;;;24.17;21.83;;;17.70;99.90;;;;;;4978782;28;20442;-50
2021/09/26 04:43:32;;;;;;;18.60;16.77;;;17.70;99.90;;;;;;4978784;28;20443;-50
2021/09/26 04:45:59;;;;;;;19.80;17.90;;;17.70;99.90;;;;;;4978654;28;20463;-49
2021/09/26 04:48:26;;;;;;;21.50;19.20;;;17.70;99.90;;;;;;4978444;28;20442;-49
2021/09/26 04:50:52;;;;;;;18.63;16.83;;;17.70;99.90;;;;;;4978518;28;20511;-49
2021/09/26 04:53:21;;;;;;;20.13;17.93;;;17.60;99.90;;;;;;4977080;28;20546;-50
2021/09/26 04:55:47;;;;;;;20.87;18.70;;;17.60;99.90;;;;;;4978473;28;20472;-49
2021/09/26 04:58:14;;;;;;;19.87;18.07;;;17.60;99.90;;;;;;4978389;28;20446;-50
2021/09/26 05:00:41;;;;;;;20.70;18.67;;;17.60;99.90;;;;;;4978620;28;20615;-49
2021/09/26 05:03:08;;;;;;;20.10;18.07;;;17.60;99.90;;;;;;4977787;28;20468;-49
2021/09/26 05:05:35;;;;;;;21.40;17.53;;;17.60;99.90;;;;;;4974769;28;20464;-50
2021/09/26 05:08:04;;;;;;;21.17;19.17;;;17.60;99.90;;;;;;4975194;28;20539;-49
2021/09/26 05:10:32;;;;;;;19.60;17.80;;;17.60;99.90;;;;;;4975524;28;20472;-50
2021/09/26 05:12:59;;;;;;;18.57;16.83;;;17.60;99.90;;;;;;4974123;28;20625;-50
2021/09/26 05:15:26;;;;;;;18.80;17.20;;;17.60;99.90;;;;;;4975358;28;20474;-49
2021/09/26 05:17:53;;;;;;;18.10;16.40;;;17.60;99.90;;;;;;4974995;28;20436;-50
2021/09/26 05:20:22;;;;;;;20.50;17.80;;;17.70;99.90;;;;;;4975258;28;20440;-49
2021/09/26 05:22:49;;;;;;;17.17;15.60;;;17.60;99.90;;;;;;4975339;28;20879;-50
2021/09/26 05:25:18;;;;;;;20.53;18.57;;;17.70;99.90;;;;;;4975326;28;20519;-50
2021/09/26 05:27:46;;;;;;;19.50;17.60;;;17.70;99.90;;;;;;4974812;28;20527;-50
2021/09/26 05:30:14;;;;;;;20.63;18.67;;;17.70;99.90;;;;;;4975451;28;20865;-50
2021/09/26 05:32:40;;;;;;;17.37;15.77;;;17.70;99.90;;;;;;4975217;28;20484;-50
2021/09/26 05:35:08;;;;;;;17.33;15.57;;;17.70;99.90;;;;;;4974923;28;20500;-50
2021/09/26 05:37:35;;;;;;;18.60;16.70;;;17.70;99.90;;;;;;4974981;28;20444;-50
2021/09/26 05:40:02;;;;;;;18.50;16.70;;;17.80;99.90;;;;;;4974637;28;20444;-50
2021/09/26 05:42:28;;;;;;;17.40;15.77;;;17.80;99.90;;;;;;4974949;28;20483;-49
2021/09/26 05:44:59;;;;;;;18.67;16.77;;;17.80;99.90;;;;;;4974758;28;20823;-49
2021/09/26 05:47:25;;;;;;;19.17;17.17;;;17.90;99.90;;;;;;4974860;28;20528;-50
2021/09/26 05:49:55;;;;;;;19.73;17.90;;;17.90;99.90;;;;;;4974521;28;20521;-49
2021/09/26 05:52:21;;;;;;;19.97;18.07;;;17.90;99.90;;;;;;4974676;28;20522;-50
2021/09/26 05:54:48;;;;;;;19.63;17.37;;;18.00;99.90;;;;;;4974530;28;20556;-50
2021/09/26 05:57:15;;;;;;;19.07;17.07;;;18.00;99.90;;;;;;4974628;28;20437;-49
2021/09/26 05:59:42;;;;;;;19.10;16.37;;;18.00;99.90;;;;;;4974367;28;20448;-50
2021/09/26 06:02:11;;;;;;;20.90;18.90;;;18.00;99.90;;;;;;4974556;28;20464;-49
2021/09/26 06:04:38;;;;;;;19.13;17.33;;;18.10;99.90;;;;;;4972949;28;20482;-49
2021/09/26 06:07:06;;;;;;;18.97;17.20;;;18.10;99.90;;;;;;4972835;28;20508;-50
2021/09/26 06:09:34;;;;;;;19.90;17.90;;;18.10;99.90;;;;;;4974073;28;20980;-50
2021/09/26 06:12:01;;;;;;;35.77;18.83;;;18.20;99.90;;;;;;4972886;28;20485;-49
2021/09/26 06:14:28;;;;;;;21.17;19.10;;;18.20;99.90;;;;;;4974078;28;20456;-50
2021/09/26 06:16:57;;;;;;;19.20;17.40;;;18.20;99.90;;;;;;4974174;28;20520;-50
2021/09/26 06:19:25;;;;;;;19.77;17.87;;;18.30;99.90;;;;;;4972369;28;20444;-49
2021/09/26 06:21:51;;;;;;;17.80;16.10;;;18.30;99.90;;;;;;4972645;28;20512;-49
2021/09/26 06:24:18;;;;;;;17.33;15.30;;;18.40;99.90;;;;;;4974034;28;20532;-49
2021/09/26 06:26:45;;;;;;;19.93;17.80;;;18.40;99.90;;;;;;4974195;28;20442;-50
2021/09/26 06:29:12;;;;;;;17.87;16.17;;;18.40;99.90;;;;;;4973699;28;20469;-49
2021/09/26 06:31:40;;;;;;;18.00;16.27;;;18.50;99.90;;;;;;4973744;28;20477;-50
2021/09/26 06:34:07;;;;;;;19.17;17.20;;;18.50;99.90;;;;;;4973507;28;20441;-49
2021/09/26 06:36:36;;;;;;;18.00;16.30;;;18.50;99.90;;;;;;4973562;28;20440;-49
2021/09/26 06:39:03;;;;;;;18.77;16.87;;;18.60;99.90;;;;;;4973266;28;20473;-49
2021/09/26 06:41:30;;;;;;;17.40;15.80;;;18.60;99.90;;;;;;4972426;28;20460;-50
2021/09/26 06:43:56;;;;;;;17.70;15.90;;;18.60;99.90;;;;;;4973575;28;20525;-49
2021/09/26 06:46:23;;;;;;;19.17;17.17;;;18.60;99.90;;;;;;4972004;28;20481;-50
2021/09/26 06:48:50;;;;;;;16.97;15.47;;;18.70;99.90;;;;;;4973181;28;20437;-49
2021/09/26 06:51:16;;;;;;;17.30;15.53;;;18.70;99.90;;;;;;4973205;28;21015;-49
2021/09/26 06:53:44;;;;;;;19.53;15.90;;;18.70;99.90;;;;;;4973056;28;20880;-50
2021/09/26 06:56:11;;;;;;;19.57;17.67;;;18.70;99.90;;;;;;5026265;23;20606;-47
2021/09/26 06:58:38;;;;;;;19.00;17.00;;;18.70;99.90;;;;;;5012495;28;20527;-46
2021/09/26 07:01:05;;;;;;;18.93;15.27;;;18.70;99.90;;;;;;5012871;28;20465;-47
2021/09/26 07:03:32;;;;;;;17.27;15.47;;;18.70;99.90;;;;;;5013313;28;20491;-48
2021/09/26 07:05:59;;;;;;;17.77;16.10;;;18.70;99.90;;;;;;5012579;28;20547;-47
2021/09/26 07:08:25;;;;;;;17.13;15.53;;;18.70;99.90;;;;;;5010853;28;20462;-48
2021/09/26 07:10:53;;;;;;;18.43;16.07;;;18.70;99.90;;;;;;5012792;28;20523;-47
2021/09/26 07:13:20;;;;;;;17.20;15.43;;;18.70;99.90;;;;;;5012562;28;20486;-48
2021/09/26 07:15:47;;;;;;;17.90;16.10;;;18.70;99.90;;;;;;5010911;28;20558;-48
2021/09/26 07:18:14;;;;;;;17.07;15.30;;;18.70;99.90;;;;;;5011689;28;20863;-47
2021/09/26 07:20:41;;;;;;;17.27;15.53;;;18.70;99.90;;;;;;5011051;28;20543;-47
2021/09/26 07:23:10;;;;;;;17.70;15.80;;;18.70;99.90;;;;;;5011990;28;20458;-48
2021/09/26 07:25:38;;;;;;;16.53;15.00;;;18.70;99.90;;;;;;5012156;28;20535;-47
2021/09/26 07:28:06;;;;;;;17.93;16.13;;;18.70;99.90;;;;;;5009809;28;20458;-48
2021/09/26 07:30:34;;;;;;;16.33;14.73;;;18.70;99.90;;;;;;5012347;28;20459;-47
2021/09/26 07:33:01;;;;;;;16.30;14.80;;;19.10;99.90;;;;;;5012718;28;20575;-48
2021/09/26 07:35:28;;;;;;;17.67;15.77;;;18.70;99.90;;;;;;5010943;28;20504;-47
2021/09/26 07:37:54;;;;;;;17.53;15.90;;;18.80;99.90;;;;;;5010475;28;20447;-46
2021/09/26 07:40:24;;;;;;;16.33;14.83;;;18.80;99.90;;;;;;5011813;28;20531;-49
2021/09/26 07:42:51;;;;;;;16.03;14.53;;;18.80;99.90;;;;;;5011578;28;20435;-47
2021/09/26 07:45:19;;;;;;;17.20;15.60;;;18.80;99.90;;;;;;5011317;28;20460;-46
2021/09/26 07:47:46;;;;;;;15.60;14.30;;;18.90;99.90;;;;;;5011189;28;20532;-47
2021/09/26 07:50:13;;;;;;;19.97;15.87;;;18.90;99.90;;;;;;5011932;28;20538;-48
2021/09/26 07:52:40;;;;;;;15.30;13.43;;;18.90;99.90;;;;;;5011920;28;20487;-47
2021/09/26 07:55:11;;;;;;;16.07;13.40;;;19.00;99.90;;;;;;5011626;28;20486;-47
2021/09/26 07:57:39;;;;;;;15.77;14.20;;;19.00;99.90;;;;;;5010283;28;20451;-48
2021/09/26 08:00:07;;;;;;;11.80;10.70;;;19.00;99.90;;;;;;5010311;28;20531;-48
2021/09/26 08:02:40;;;;;;;12.23;11.03;;;19.10;99.90;;;;;;5012455;28;20424;-48
2021/09/26 08:05:08;;;;;;;14.07;12.20;;;19.10;99.90;;;;;;5012084;28;20528;-47
2021/09/26 08:07:35;;;;;;;10.67;9.77;;;19.10;99.90;;;;;;5011423;28;21003;-48
2021/09/26 08:10:02;;;;;;;11.27;10.10;;;19.20;99.90;;;;;;5011055;28;20527;-47
2021/09/26 08:12:29;;;;;;;10.83;9.80;;;19.20;99.90;;;;;;5011505;28;20989;-49
2021/09/26 08:14:55;;;;;;;10.40;9.30;;;19.20;99.90;;;;;;5011711;28;20515;-48
2021/09/26 08:17:22;;;;;;;12.70;11.40;;;19.20;99.90;;;;;;5009828;28;20827;-48
2021/09/26 08:19:50;;;;;;;10.00;9.10;;;19.30;99.90;;;;;;5009446;28;20455;-47
2021/09/26 08:22:17;;;;;;;10.00;9.10;;;19.40;99.90;;;;;;5011092;28;20467;-47
2021/09/26 08:24:44;;;;;;;9.93;9.03;;;19.40;99.90;;;;;;5009774;28;21001;-47
2021/09/26 08:27:13;;;;;;;9.47;8.50;;;19.40;99.90;;;;;;5011758;28;20524;-49
2021/09/26 08:29:42;;;;;;;9.50;8.60;;;19.50;99.90;;;;;;5010224;28;20483;-46
2021/09/26 08:32:12;;;;;;;12.47;11.27;;;19.60;99.90;;;;;;5011141;28;21041;-47
2021/09/26 08:34:39;;;;;;;9.53;8.70;;;19.60;99.90;;;;;;5011442;28;20466;-48
2021/09/26 08:37:09;;;;;;;12.80;9.37;;;19.60;99.90;;;;;;5011116;28;20432;-47
2021/09/26 08:39:36;;;;;;;8.80;8.00;;;19.70;99.90;;;;;;5013597;28;20854;-47
2021/09/26 08:42:03;;;;;;;9.70;8.80;;;19.70;99.90;;;;;;5015144;28;20433;-48
2021/09/26 08:44:30;;;;;;;9.63;8.83;;;19.70;99.90;;;;;;5014544;28;20529;-47
2021/09/26 08:46:59;;;;;;;10.10;9.20;;;19.80;99.90;;;;;;5013455;28;20973;-47
2021/09/26 08:49:25;;;;;;;9.73;8.70;;;19.80;99.90;;;;;;5013065;28;20972;-49
2021/09/26 08:51:54;;;;;;;10.17;9.17;;;19.80;99.90;;;;;;5012989;28;20486;-47
2021/09/26 08:54:22;;;;;;;9.93;9.03;;;19.80;99.90;;;;;;5012737;28;20445;-48
2021/09/26 08:56:49;;;;;;;9.77;8.80;;;19.90;99.90;;;;;;5014774;28;20524;-48
2021/09/26 08:59:16;;;;;;;15.80;10.23;;;19.90;99.90;;;;;;5014615;28;20484;-50
2021/09/26 09:01:43;;;;;;;10.10;9.10;;;19.90;99.90;;;;;;5014748;28;20437;-48
2021/09/26 09:04:09;;;;;;;11.10;9.73;;;19.90;99.90;;;;;;5014177;28;20538;-47
2021/09/26 09:06:44;;;;;;;10.07;9.17;;;20.00;99.90;;;;;;5014288;28;20492;-49
2021/09/26 09:09:15;;;;;;;8.93;8.13;;;20.10;99.90;;;;;;5013897;28;20536;-48
2021/09/26 09:11:59;;;;;;;9.67;8.80;;;20.10;99.90;;;;;;5014316;28;20445;-48
2021/09/26 09:14:26;;;;;;;10.23;9.33;;;20.10;99.90;;;;;;5013153;28;20544;-47
2021/09/26 09:16:56;;;;;;;11.60;9.20;;;20.10;99.90;;;;;;5012910;28;20461;-47
2021/09/26 09:19:25;;;;;;;9.80;8.80;;;20.10;99.90;;;;;;5013901;28;20437;-48
2021/09/26 09:22:06;;;;;;;8.90;8.10;;;20.20;99.90;;;;;;5016049;28;20538;-47
2021/09/26 09:24:40;;;;;;;11.57;9.00;;;20.30;99.90;;;;;;5014007;28;20437;-48
2021/09/26 09:27:09;;;;;;;9.23;8.33;;;20.30;99.90;;;;;;5013795;28;20509;-48
2021/09/26 09:29:38;;;;;;;8.73;7.97;;;20.30;99.90;;;;;;5013830;28;20981;-46
2021/09/26 09:32:17;;;;;;;8.53;7.63;;;20.40;99.90;;;;;;5012627;28;20785;-47
2021/09/26 09:34:44;;;;;;;9.27;7.83;;;20.40;99.90;;;;;;5013756;28;20450;-48
2021/09/26 09:37:13;;;;;;;8.87;8.17;;;20.40;99.90;;;;;;5013723;28;20477;-50
2021/09/26 09:39:41;;;;;;;11.50;7.83;;;20.50;99.90;;;;;;5011754;28;20938;-47
2021/09/26 09:42:20;;;;;;;7.90;7.10;;;20.50;99.90;;;;;;5014272;28;20568;-47
2021/09/26 09:44:47;;;;;;;10.27;7.43;;;20.60;99.90;;;;;;5012563;28;20499;-49
2021/09/26 09:47:16;;;;;;;10.50;7.43;;;20.60;99.90;;;;;;5014152;28;20438;-47
2021/09/26 09:49:56;;;;;;;10.63;7.43;;;20.70;99.90;;;;;;5012498;28;20434;-48
2021/09/26 09:52:41;;;;;;;9.50;7.40;;;20.70;99.90;;;;;;5014022;28;20539;-47
2021/09/26 09:55:08;;;;;;;8.30;6.67;;;20.80;99.90;;;;;;5014159;28;20482;-49
2021/09/26 09:57:37;;;;;;;7.30;6.53;;;20.80;99.90;;;;;;5013902;28;20434;-49
2021/09/26 10:00:16;;;;;;;7.03;6.53;;;20.90;99.90;;;;;;5014033;28;20457;-46
2021/09/26 10:02:43;;;;;;;8.57;6.77;;;21.00;99.90;;;;;;5013215;28;20493;-48
2021/09/26 10:05:29;;;;;;;8.40;6.77;;;21.00;99.90;;;;;;5013312;28;20525;-48
2021/09/26 10:07:58;;;;;;;7.50;6.90;;;21.10;99.90;;;;;;5011784;28;20504;-48
2021/09/26 10:10:31;;;;;;;7.10;6.03;;;21.20;99.90;;;;;;5012548;28;20439;-48
2021/09/26 10:13:10;;;;;;;5.40;4.90;;;21.20;99.90;;;;;;5012861;28;20472;-50
2021/09/26 10:15:38;;;;;;;6.73;6.13;;;21.30;99.90;;;;;;5013159;28;20550;-47
2021/09/26 10:18:04;;;;;;;6.30;5.70;;;21.30;99.90;;;;;;5012644;28;20444;-47
2021/09/26 10:20:32;;;;;;;5.73;5.23;;;21.30;99.90;;;;;;5012786;28;20628;-48
2021/09/26 10:22:59;;;;;;;7.97;5.67;;;21.30;99.90;;;;;;5011694;28;20478;-47
2021/09/26 10:25:26;;;;;;;7.27;6.67;;;21.30;99.90;;;;;;5012840;28;20461;-48
2021/09/26 10:27:54;;;;;;;6.80;5.93;;;21.40;99.90;;;;;;5012505;28;20521;-47
2021/09/26 10:30:23;;;;;;;6.43;5.43;;;21.40;99.90;;;;;;5011523;28;20490;-47
2021/09/26 10:32:51;;;;;;;5.63;5.10;;;21.60;99.90;;;;;;5012859;28;20541;-50
2021/09/26 10:35:18;;;;;;;5.00;4.50;;;21.60;99.90;;;;;;5012953;28;20456;-47
2021/09/26 10:37:45;;;;;;;6.57;5.97;;;21.80;99.90;;;;;;5016198;28;20538;-48
2021/09/26 10:40:16;;;;;;;5.90;5.40;;;22.00;99.90;;;;;;5013793;28;20444;-50
2021/09/26 10:42:43;;;;;;;5.40;4.90;;;22.20;99.90;;;;;;5012774;28;20519;-48
2021/09/26 10:45:10;;;;;;;9.67;6.17;;;22.30;99.90;;;;;;5012451;28;20557;-50
2021/09/26 10:47:39;;;;;;;8.13;5.60;;;22.50;99.90;;;;;;5010612;28;20478;-46
2021/09/26 10:50:12;;;;;;;7.00;5.23;;;22.70;99.90;;;;;;5012307;28;20495;-46
2021/09/26 10:52:41;;;;;;;5.33;4.87;;;22.80;99.90;;;;;;5010392;28;20491;-48
2021/09/26 10:55:32;;;;;;;5.80;5.30;;;23.00;99.90;;;;;;5011213;28;20465;-47
2021/09/26 10:58:25;;;;;;;6.17;5.33;;;23.10;99.90;;;;;;5011543;28;20490;-49
2021/09/26 11:01:01;;;;;;;6.43;4.47;;;23.10;99.90;;;;;;5011846;28;20864;-50
2021/09/26 11:03:38;;;;;;;5.57;4.73;;;23.10;99.90;;;;;;5011791;28;20490;-47
2021/09/26 11:06:27;;;;;;;6.33;5.70;;;23.10;99.90;;;;;;5012314;28;20462;-48
2021/09/26 11:08:57;;;;;;;6.60;5.50;;;23.00;99.90;;;;;;5011780;28;20492;-48
2021/09/26 11:11:38;;;;;;;5.20;4.70;;;23.00;99.90;;;;;;5011660;28;20469;-48
2021/09/26 11:14:06;;;;;;;6.60;5.03;;;22.90;99.90;;;;;;5011768;28;20476;-50
2021/09/26 11:16:50;;;;;;;5.30;4.60;;;22.90;99.90;;;;;;5010487;28;20827;-48
2021/09/26 11:19:21;;;;;;;8.73;5.00;;;22.80;99.90;;;;;;5011542;28;20433;-49
2021/09/26 11:21:54;;;;;;;7.47;4.50;;;22.70;99.90;;;;;;5010587;28;20453;-49
2021/09/26 11:24:42;;;;;;;5.43;4.93;;;22.70;99.90;;;;;;5011884;28;20523;-52
2021/09/26 11:27:15;;;;;;;5.97;4.87;;;22.70;99.90;;;;;;5011824;28;20826;-47
2021/09/26 11:30:30;;;;;;;6.43;5.50;;;22.70;99.90;;;;;;5011005;28;20495;-49
2021/09/26 11:33:00;;;;;;;8.20;6.13;;;22.80;99.80;;;;;;5011357;28;20486;-48
2021/09/26 11:35:31;;;;;;;5.83;5.30;;;22.70;99.90;;;;;;5011784;28;21024;-48
2021/09/26 11:38:02;;;;;;;5.70;5.20;;;22.70;99.90;;;;;;5010958;28;20956;-49
2021/09/26 11:41:01;;;;;;;6.90;5.00;;;22.80;99.90;;;;;;5011269;28;20440;-47
2021/09/26 11:43:30;;;;;;;5.33;4.90;;;22.80;99.90;;;;;;5011462;28;20505;-47
2021/09/26 11:45:59;;;;;;;5.23;4.67;;;22.80;99.90;;;;;;5011116;28;20454;-47
2021/09/26 11:48:36;;;;;;;7.20;5.13;;;22.80;99.90;;;;;;5009699;28;20537;-48
2021/09/26 11:51:09;;;;;;;5.57;5.07;;;23.10;99.90;;;;;;5011417;28;20444;-48
2021/09/26 11:53:37;;;;;;;5.07;4.63;;;22.80;99.90;;;;;;5011591;28;20559;-48
2021/09/26 11:56:21;;;;;;;6.13;5.53;;;22.90;99.90;;;;;;5013021;28;20495;-48
2021/09/26 11:58:52;;;;;;;6.10;5.60;;;23.00;99.60;;;;;;5009844;28;20794;-48
2021/09/26 12:01:26;;;;;;;6.93;4.80;;;23.00;99.70;;;;;;5011067;28;20763;-48
2021/09/26 12:04:18;;;;;;;6.30;5.10;;;23.00;99.60;;;;;;5011332;28;20472;-47
2021/09/26 12:06:49;;;;;;;6.57;5.53;;;23.00;99.50;;;;;;5007654;28;20513;-48
2021/09/26 12:09:33;;;;;;;6.27;5.10;;;23.00;99.60;;;;;;5010903;28;20442;-48
2021/09/26 12:12:00;;;;;;;7.60;5.70;;;23.00;98.90;;;;;;5011219;28;20434;-48
2021/09/26 12:14:30;;;;;;;12.00;5.77;;;23.00;99.30;;;;;;5014047;28;20477;-48
2021/09/26 12:16:58;;;;;;;7.10;5.17;;;23.10;99.20;;;;;;5014156;28;20450;-49
2021/09/26 12:19:25;;;;;;;4.90;4.50;;;23.10;99.20;;;;;;5013642;28;20562;-47
2021/09/26 12:22:02;;;;;;;6.97;5.43;;;23.10;99.10;;;;;;5015159;28;20528;-48
2021/09/26 12:24:35;;;;;;;6.57;5.97;;;23.10;98.80;;;;;;5015060;28;20438;-49
2021/09/26 12:27:19;;;;;;;6.00;5.23;;;23.10;98.70;;;;;;5013619;28;20446;-47
2021/09/26 12:29:52;;;;;;;5.50;5.00;;;23.20;98.60;;;;;;5014212;28;20447;-46
2021/09/26 12:32:19;;;;;;;6.50;5.37;;;23.20;98.70;;;;;;5015029;28;20625;-48
2021/09/26 12:34:48;;;;;;;6.47;5.80;;;23.20;98.80;;;;;;5014558;28;20524;-48
2021/09/26 12:37:17;;;;;;;6.30;5.70;;;23.30;98.90;;;;;;5014759;28;21238;-48
2021/09/26 12:39:47;;;;;;;5.93;5.43;;;23.30;98.90;;;;;;5012987;28;20562;-47
2021/09/26 12:42:20;;;;;;;5.87;5.37;;;23.30;98.70;;;;;;5014823;28;20516;-50
2021/09/26 12:44:47;;;;;;;8.60;6.00;;;23.40;98.60;;;;;;5013562;28;20494;-49
2021/09/26 12:47:18;;;;;;;5.93;5.43;;;23.40;98.50;;;;;;5014610;28;20536;-48